»·PEaware :: N4922Z KTRM-KSAN

N4922Z :: KTRM-KSAN

FLIGHT INFORMATION

Flight Status: Arrived
Operator: Privately registered:
United States
More flights under this callsign
Pilot: William N. (15320)
Aircraft: MITSUBISHI MU-2 MARQUISE
(MU2)
More flights by this aircraft type
Origin: KTRM Desert Resorts Regl
United States
Destination: KSAN San Diego Intl-Lindbergh
United States
More flights between these airports :: More routes between these airports
Route: TRM V514 MZB
File this flight plan on PilotEdge
Remarks:
Altitude:
(Current/Filed)
12,000ft
Speed:
(Current/Filed)
275kts
Departed: 10-May-18 02:06 PM
Arrived: 10-May-18 03:19 PM
Distance/Time
Traveled:
75nm/1:13
Distance/Time
To Go:
Arrived

Flight Plot

Page will automatically refresh every two minutes.


Map Options




Map Legend


Flown Route
Filed Route
Departure Airport
Arrival Airport
Navaid (VOR, NDB)
Fix

Horizontal Profiles

Position Reports

Time Latitude Longitude Heading Altitude Ground
Speed
10-May-18 13:45 33.634760 -116.163101 91 -107ft 0kts
10-May-18 13:46 33.634760 -116.163101 91 -107ft 0kts
10-May-18 13:47 33.634760 -116.163101 91 -107ft 0kts
10-May-18 13:48 33.634760 -116.163101 91 -107ft 0kts
10-May-18 13:49 33.634760 -116.163101 91 -107ft 0kts
10-May-18 13:50 33.634760 -116.163101 91 -107ft 0kts
10-May-18 13:51 33.634760 -116.163101 91 -107ft 0kts
10-May-18 13:52 33.634760 -116.163101 91 -107ft 0kts
10-May-18 13:53 33.634760 -116.163101 91 -107ft 0kts
10-May-18 13:54 33.634760 -116.163101 91 -107ft 0kts
10-May-18 13:55 33.634760 -116.163101 91 -107ft 0kts
10-May-18 13:56 33.634760 -116.163101 91 -107ft 0kts
10-May-18 13:57 33.634760 -116.163101 91 -107ft 0kts
10-May-18 13:58 33.634761 -116.163101 90 -107ft 0kts
10-May-18 13:59 33.634456 -116.162810 184 -107ft 0kts
10-May-18 14:00 33.634177 -116.160805 89 -107ft 17kts
10-May-18 14:01 33.634942 -116.157741 2 -107ft 14kts
10-May-18 14:02 33.638973 -116.157431 80 -107ft 0kts
10-May-18 14:03 33.638973 -116.157431 80 -107ft 0kts
10-May-18 14:04 33.639034 -116.156919 91 -107ft 10kts
10-May-18 14:05 33.638600 -116.156429 181 -107ft 5kts
10-May-18 14:06 33.603119 -116.158296 206 1070ft 189kts
10-May-18 14:07 33.549694 -116.165388 171 3088ft 225kts
10-May-18 14:08 33.486514 -116.150628 170 5206ft 231kts
10-May-18 14:09 33.429976 -116.143736 195 7734ft 200kts
10-May-18 14:10 33.406266 -116.190011 258 10381ft 173kts
10-May-18 14:11 33.359008 -116.204252 186 11978ft 224kts
10-May-18 14:12 33.290610 -116.204231 186 11975ft 260kts
10-May-18 14:13 33.222607 -116.189790 151 11966ft 245kts
10-May-18 14:14 33.228001 -116.127030 26 11968ft 191kts
10-May-18 14:15 33.280479 -116.092875 23 9991ft 241kts
10-May-18 14:16 33.345435 -116.071831 2 7971ft 244kts
10-May-18 14:17 33.411434 -116.061019 357 6074ft 234kts
10-May-18 14:18 33.474328 -116.059934 356 3969ft 223kts
10-May-18 14:19 33.535849 -116.068039 356 1769ft 225kts
10-May-18 14:20 33.595217 -116.070691 1 969ft 203kts
10-May-18 14:21 33.631281 -116.116233 295 970ft 188kts
10-May-18 14:22 33.669973 -116.141036 0 968ft 157kts
10-May-18 14:23 33.706852 -116.148169 274 1036ft 153kts
10-May-18 14:24 33.671156 -116.158083 170 1103ft 161kts
10-May-18 14:25 33.628407 -116.156364 181 -106ft 134kts
10-May-18 14:26 33.620553 -116.157516 290 -107ft 5kts
10-May-18 14:27 33.625152 -116.157742 0 -107ft 22kts
10-May-18 14:28 33.629674 -116.157754 359 -107ft 0kts
10-May-18 14:29 33.629674 -116.157754 359 -107ft 0kts
10-May-18 14:30 33.633044 -116.157754 0 -107ft 24kts
10-May-18 14:31 33.636820 -116.158377 35 -107ft 0kts
10-May-18 14:32 33.636820 -116.158377 35 -107ft 0kts
10-May-18 14:33 33.636820 -116.158377 35 -107ft 0kts
10-May-18 14:34 33.636820 -116.158377 35 -107ft 0kts
10-May-18 14:35 33.636820 -116.158377 35 -107ft 0kts
10-May-18 14:36 33.636820 -116.158377 35 -107ft 0kts
10-May-18 14:37 33.636820 -116.158377 35 -107ft 0kts
10-May-18 14:38 33.636820 -116.158377 35 -107ft 0kts
10-May-18 14:39 33.637047 -116.158255 32 -107ft 6kts
10-May-18 14:40 33.638979 -116.157417 78 -107ft 0kts
10-May-18 14:41 33.638993 -116.157335 78 -107ft 3kts
10-May-18 14:42 33.638588 -116.156428 179 -107ft 16kts
10-May-18 14:43 33.599389 -116.157013 179 1138ft 185kts
10-May-18 14:44 33.544673 -116.155797 178 3507ft 212kts
10-May-18 14:45 33.509728 -116.113864 58 5978ft 220kts
10-May-18 14:46 33.562491 -116.096856 355 8428ft 210kts
10-May-18 14:47 33.593080 -116.126741 234 10879ft 181kts
10-May-18 14:48 33.553647 -116.174009 225 11979ft 232kts
10-May-18 14:49 33.501998 -116.227926 223 11973ft 256kts
10-May-18 14:50 33.446374 -116.283660 223 11971ft 263kts
10-May-18 14:51 33.389475 -116.340140 222 11762ft 271kts
10-May-18 14:52 33.332010 -116.397033 222 11749ft 268kts
10-May-18 14:53 33.274947 -116.453424 223 11748ft 264kts
10-May-18 14:54 33.224027 -116.503593 223 11834ft 261kts
10-May-18 14:55 33.168370 -116.558509 223 11940ft 261kts
10-May-18 14:56 33.101192 -116.585495 181 11942ft 281kts
10-May-18 14:57 33.023488 -116.584515 190 11939ft 277kts
10-May-18 14:58 32.946893 -116.592001 191 11964ft 276kts
10-May-18 14:59 32.871802 -116.599365 191 11941ft 277kts
10-May-18 15:00 32.796216 -116.606546 190 11181ft 276kts
10-May-18 15:01 32.718701 -116.613303 177 9583ft 290kts
10-May-18 15:02 32.694912 -116.531053 51 7885ft 321kts
10-May-18 15:03 32.771356 -116.505351 0 6483ft 266kts
10-May-18 15:04 32.812165 -116.538608 289 6448ft 176kts
10-May-18 15:05 32.826613 -116.595153 276 5425ft 175kts
10-May-18 15:06 32.814624 -116.643102 228 4916ft 151kts
10-May-18 15:07 32.793530 -116.677680 244 4972ft 145kts
10-May-18 15:08 32.767515 -116.729290 238 4968ft 198kts
10-May-18 15:09 32.738441 -116.784551 238 4963ft 193kts
10-May-18 15:10 32.711759 -116.835262 238 4960ft 169kts
10-May-18 15:11 32.688332 -116.880093 244 4634ft 168kts
10-May-18 15:12 32.672897 -116.932927 260 3840ft 157kts
10-May-18 15:13 32.682925 -116.981654 280 3323ft 149kts
10-May-18 15:14 32.694943 -117.030875 283 2664ft 142kts
10-May-18 15:15 32.705067 -117.072526 285 1982ft 121kts
10-May-18 15:16 32.714017 -117.108368 284 1350ft 122kts
10-May-18 15:17 32.722687 -117.144741 285 760ft 105kts
10-May-18 15:18 32.729128 -117.171342 283 200ft 99kts
10-May-18 15:19 32.733261 -117.191636 198 17ft 0kts
10-May-18 15:20 32.732855 -117.191020 103 17ft 14kts
10-May-18 15:21 32.732107 -117.189999 106 17ft 0kts

Navigation Log

Ident Type
1. KTRM Airport
2. TRM Navaid
3. WARNE Fix
4. JLI Navaid
5. CANNO Fix
6. BARET Fix
7. RYAHH Fix
8. HAILE Fix
9. MZB Navaid
10. KSAN Airport